createdAt,value
2018-07-29T00:02:34.747Z,24.70
2018-07-29T00:05:03.413Z,24.70
2018-07-29T00:07:32.005Z,24.80
2018-07-29T00:10:00.830Z,24.90
2018-07-29T00:12:29.599Z,25.00
2018-07-29T00:14:58.115Z,24.90
2018-07-29T00:17:26.743Z,25.00
2018-07-29T00:19:55.311Z,25.00
2018-07-29T00:22:23.850Z,25.00
2018-07-29T00:24:52.705Z,25.00
2018-07-29T00:27:21.192Z,24.80
2018-07-29T00:29:49.830Z,24.80
2018-07-29T00:32:18.462Z,24.70
2018-07-29T00:34:47.175Z,24.60
2018-07-29T00:37:15.670Z,24.60
2018-07-29T00:39:44.175Z,24.60
2018-07-29T00:42:12.988Z,24.50
2018-07-29T00:44:41.522Z,24.50
2018-07-29T00:47:10.044Z,24.40
2018-07-29T00:49:38.641Z,24.40
2018-07-29T00:52:07.119Z,24.40
2018-07-29T00:54:35.653Z,24.40
2018-07-29T00:57:04.123Z,24.40
2018-07-29T00:59:32.638Z,24.60
2018-07-29T01:02:01.456Z,24.60
2018-07-29T01:04:30.103Z,24.60
2018-07-29T01:09:26.899Z,24.60
2018-07-29T01:11:55.485Z,24.70
2018-07-29T01:14:24.256Z,24.60
2018-07-29T01:16:52.876Z,24.50
2018-07-29T01:19:21.443Z,24.50
2018-07-29T01:21:50.020Z,24.30
2018-07-29T01:24:18.518Z,24.30
2018-07-29T01:26:47.044Z,24.20
2018-07-29T01:29:15.894Z,24.20
2018-07-29T01:31:44.417Z,24.20
2018-07-29T01:34:13.020Z,24.10
2018-07-29T01:36:41.568Z,24.10
2018-07-29T01:39:10.589Z,24.30
2018-07-29T01:41:39.207Z,24.30
2018-07-29T01:44:07.832Z,24.30
2018-07-29T01:46:36.356Z,24.20
2018-07-29T01:49:05.263Z,24.10
2018-07-29T01:51:33.811Z,24.20
2018-07-29T01:54:02.638Z,24.30
2018-07-29T01:56:31.363Z,24.30
2018-07-29T01:58:59.914Z,24.40
2018-07-29T02:01:29.011Z,24.40
2018-07-29T02:03:57.713Z,24.40
2018-07-29T02:06:26.588Z,24.30
2018-07-29T02:08:55.094Z,24.10
2018-07-29T02:11:23.644Z,24.00
2018-07-29T02:13:52.340Z,23.90
2018-07-29T02:16:21.308Z,23.80
2018-07-29T02:18:49.865Z,23.80
2018-07-29T02:21:18.403Z,23.80
2018-07-29T02:23:46.939Z,23.70
2018-07-29T02:26:15.507Z,23.70
2018-07-29T02:28:44.070Z,23.70
2018-07-29T02:31:12.592Z,23.70
2018-07-29T02:36:09.603Z,23.70
2018-07-29T02:38:38.550Z,23.70
2018-07-29T02:41:07.483Z,23.70
2018-07-29T02:43:36.025Z,23.70
2018-07-29T02:46:04.792Z,23.60
2018-07-29T02:48:33.496Z,23.60
2018-07-29T02:51:02.984Z,23.60
2018-07-29T02:55:59.696Z,23.50
2018-07-29T02:58:28.220Z,23.50
2018-07-29T03:00:56.772Z,23.50
2018-07-29T03:03:25.745Z,23.50
2018-07-29T03:05:54.814Z,23.50
2018-07-29T03:08:23.538Z,23.50
2018-07-29T03:10:52.082Z,23.40
2018-07-29T03:13:20.874Z,23.40
2018-07-29T03:15:49.776Z,23.40
2018-07-29T03:18:18.501Z,23.40
2018-07-29T03:20:47.084Z,23.30
2018-07-29T03:23:15.652Z,23.30
2018-07-29T03:25:44.182Z,23.40
2018-07-29T03:28:12.734Z,23.40
2018-07-29T03:30:41.351Z,23.40
2018-07-29T03:35:38.569Z,23.40
2018-07-29T03:38:07.718Z,23.40
2018-07-29T03:40:36.585Z,23.30
2018-07-29T03:43:05.246Z,23.30
2018-07-29T03:45:34.482Z,23.20
2018-07-29T03:48:03.052Z,23.20
2018-07-29T03:50:31.788Z,23.30
2018-07-29T03:53:00.559Z,23.30
2018-07-29T03:55:29.185Z,23.30
2018-07-29T03:57:58.087Z,23.30
2018-07-29T04:00:26.716Z,23.30
2018-07-29T04:02:55.346Z,23.30
2018-07-29T04:05:23.880Z,23.30
2018-07-29T04:10:21.092Z,23.30
2018-07-29T04:12:49.708Z,23.20
2018-07-29T04:15:18.425Z,23.20
2018-07-29T04:17:46.973Z,23.20
2018-07-29T04:20:15.511Z,23.20
2018-07-29T04:22:44.319Z,23.10
2018-07-29T04:25:12.920Z,23.10
2018-07-29T04:27:41.635Z,23.10
2018-07-29T04:30:10.808Z,23.10
2018-07-29T04:32:39.650Z,23.00
2018-07-29T04:35:08.776Z,23.10
2018-07-29T04:37:37.367Z,23.10
2018-07-29T04:40:06.021Z,23.10
2018-07-29T04:42:34.835Z,23.20
2018-07-29T04:45:03.536Z,23.20
2018-07-29T04:47:32.518Z,23.10
2018-07-29T04:50:01.073Z,23.00
2018-07-29T04:52:29.653Z,23.00
2018-07-29T04:54:58.443Z,23.00
2018-07-29T04:57:27.256Z,23.10
2018-07-29T04:59:55.847Z,23.10
2018-07-29T05:02:24.775Z,23.10
2018-07-29T05:04:53.341Z,23.20
2018-07-29T05:07:21.896Z,23.20
2018-07-29T05:09:50.493Z,23.20
2018-07-29T05:12:19.014Z,23.20
2018-07-29T05:14:47.890Z,23.20
2018-07-29T05:17:16.456Z,23.20
2018-07-29T05:19:45.915Z,23.20
2018-07-29T05:22:15.838Z,23.30
2018-07-29T05:24:44.462Z,23.40
2018-07-29T05:27:14.441Z,23.40
2018-07-29T05:29:43.066Z,23.40
2018-07-29T05:32:12.416Z,23.40
2018-07-29T05:34:41.000Z,23.40
2018-07-29T05:37:10.192Z,23.50
2018-07-29T05:39:39.208Z,23.40
2018-07-29T05:42:08.394Z,23.50
2018-07-29T05:44:37.983Z,23.60
2018-07-29T05:47:06.825Z,23.60
2018-07-29T05:49:35.559Z,23.50
2018-07-29T05:52:04.463Z,23.60
2018-07-29T05:54:33.147Z,23.70
2018-07-29T05:57:01.691Z,23.70
2018-07-29T05:59:30.440Z,23.80
2018-07-29T06:01:59.274Z,23.90
2018-07-29T06:04:27.851Z,23.90
2018-07-29T06:06:57.253Z,23.90
2018-07-29T06:09:25.777Z,24.00
2018-07-29T06:11:54.639Z,24.10
2018-07-29T06:14:23.256Z,24.30
2018-07-29T06:16:51.906Z,24.40
2018-07-29T06:19:21.387Z,24.50
2018-07-29T06:21:50.199Z,24.60
2018-07-29T06:24:19.515Z,24.70
2018-07-29T06:26:48.024Z,24.80
2018-07-29T06:29:16.799Z,24.80
2018-07-29T06:31:45.531Z,24.90
2018-07-29T06:34:14.058Z,25.00
2018-07-29T06:36:43.194Z,25.00
2018-07-29T06:39:12.785Z,25.10
2018-07-29T06:41:41.902Z,25.10
2018-07-29T06:44:10.807Z,25.20
2018-07-29T06:46:39.305Z,25.30
2018-07-29T06:49:07.932Z,25.30
2018-07-29T06:51:36.694Z,25.40
2018-07-29T06:54:05.713Z,25.40
2018-07-29T06:56:34.353Z,25.40
2018-07-29T06:59:03.175Z,25.40
2018-07-29T07:01:31.924Z,25.40
2018-07-29T07:04:00.721Z,25.50
2018-07-29T07:06:29.297Z,25.60
2018-07-29T07:08:57.944Z,25.70
2018-07-29T07:11:26.627Z,25.80
2018-07-29T07:13:55.680Z,26.00
2018-07-29T07:16:25.272Z,26.10
2018-07-29T07:18:54.152Z,26.30
2018-07-29T07:21:22.996Z,26.40
2018-07-29T07:23:51.600Z,26.60
2018-07-29T07:26:20.226Z,26.80
2018-07-29T07:28:48.820Z,27.00
2018-07-29T07:31:17.835Z,27.00
2018-07-29T07:33:46.473Z,27.10
2018-07-29T07:36:15.320Z,27.20
2018-07-29T07:38:44.196Z,27.40
2018-07-29T07:41:13.064Z,27.50
2018-07-29T07:43:41.652Z,27.60
2018-07-29T07:46:10.350Z,27.70
2018-07-29T07:48:40.127Z,27.70
2018-07-29T07:51:08.831Z,27.90
2018-07-29T07:53:37.701Z,28.00
2018-07-29T07:56:06.307Z,28.10
2018-07-29T07:58:34.871Z,28.10
2018-07-29T08:01:03.624Z,28.10
2018-07-29T08:03:32.204Z,28.20
2018-07-29T08:06:00.926Z,28.20
2018-07-29T08:08:30.727Z,28.20
2018-07-29T08:10:59.295Z,28.30
2018-07-29T08:13:28.583Z,28.40
2018-07-29T08:15:57.211Z,28.50
2018-07-29T08:18:25.938Z,28.50
2018-07-29T08:20:54.852Z,28.60
2018-07-29T08:23:23.364Z,28.60
2018-07-29T08:25:51.940Z,28.60
2018-07-29T08:28:20.687Z,28.70
2018-07-29T08:30:49.262Z,28.80
2018-07-29T08:33:18.499Z,28.70
2018-07-29T08:35:47.145Z,28.70
2018-07-29T08:38:16.972Z,28.50
2018-07-29T08:40:46.527Z,28.40
2018-07-29T08:43:17.186Z,28.50
2018-07-29T08:45:46.359Z,28.40
2018-07-29T08:48:17.249Z,28.50
2018-07-29T08:50:45.875Z,28.50
2018-07-29T08:53:14.549Z,28.50
2018-07-29T08:55:43.776Z,28.50
2018-07-29T08:58:12.957Z,28.60
2018-07-29T09:00:41.941Z,28.70
2018-07-29T09:03:10.825Z,28.70
2018-07-29T09:05:39.530Z,28.70
2018-07-29T09:08:08.285Z,28.60
2018-07-29T09:10:36.991Z,28.60
2018-07-29T09:13:05.575Z,28.60
2018-07-29T09:15:35.693Z,28.60
2018-07-29T09:18:04.276Z,28.50
2018-07-29T09:20:33.812Z,28.60
2018-07-29T09:23:02.611Z,28.60
2018-07-29T09:25:31.188Z,28.70
2018-07-29T09:28:00.051Z,28.70
2018-07-29T09:30:28.711Z,28.70
2018-07-29T09:35:25.762Z,28.70
2018-07-29T09:37:54.356Z,28.70
2018-07-29T09:40:23.027Z,28.70
2018-07-29T09:42:51.987Z,28.70
2018-07-29T09:45:20.670Z,28.70
2018-07-29T09:47:49.707Z,28.80
2018-07-29T09:50:18.243Z,28.80
2018-07-29T09:52:47.366Z,28.70
2018-07-29T09:55:15.884Z,28.70
2018-07-29T09:57:44.483Z,28.70
2018-07-29T10:00:13.251Z,28.60
2018-07-29T10:02:42.555Z,28.60
2018-07-29T10:05:11.144Z,28.50
2018-07-29T10:07:40.096Z,28.50
2018-07-29T10:10:08.676Z,28.60
2018-07-29T10:12:37.587Z,28.60
2018-07-29T10:15:06.257Z,28.50
2018-07-29T10:17:35.492Z,28.50
2018-07-29T10:20:04.764Z,28.50
2018-07-29T10:22:33.467Z,28.40
2018-07-29T10:25:02.391Z,28.40
2018-07-29T10:27:30.946Z,28.40
2018-07-29T10:29:59.443Z,28.50
2018-07-29T10:34:56.605Z,28.50
2018-07-29T10:37:25.345Z,28.50
2018-07-29T10:39:54.593Z,28.50
2018-07-29T10:42:23.171Z,28.60
2018-07-29T10:44:51.863Z,28.50
2018-07-29T10:49:48.725Z,28.50
2018-07-29T10:52:17.507Z,28.70
2018-07-29T10:54:46.336Z,28.70
2018-07-29T10:57:15.029Z,28.70
2018-07-29T10:59:44.069Z,28.70
2018-07-29T11:02:13.012Z,28.80
2018-07-29T11:04:41.915Z,28.70
2018-07-29T11:07:10.610Z,28.70
2018-07-29T11:09:39.125Z,28.60
2018-07-29T11:12:07.935Z,28.50
2018-07-29T11:14:36.480Z,28.50
2018-07-29T11:17:05.484Z,28.50
2018-07-29T11:19:34.596Z,28.50
2018-07-29T11:22:03.184Z,28.50
2018-07-29T11:24:32.003Z,28.50
2018-07-29T11:27:00.567Z,28.40
2018-07-29T11:29:29.457Z,28.60
2018-07-29T11:31:58.106Z,28.70
2018-07-29T11:34:26.684Z,28.80
2018-07-29T11:36:55.407Z,28.90
2018-07-29T11:39:24.031Z,29.00
2018-07-29T11:41:52.624Z,29.10
2018-07-29T11:44:21.123Z,29.20
2018-07-29T11:46:50.372Z,29.20
2018-07-29T11:49:18.889Z,29.10
2018-07-29T11:51:48.274Z,29.10
2018-07-29T11:54:17.003Z,29.10
2018-07-29T11:56:46.122Z,29.00
2018-07-29T11:59:14.696Z,28.90
2018-07-29T12:01:43.265Z,28.90
2018-07-29T12:04:11.871Z,28.80
2018-07-29T12:06:40.602Z,28.80
2018-07-29T12:09:09.848Z,28.70
2018-07-29T12:11:38.451Z,28.70
2018-07-29T12:14:07.093Z,28.80
2018-07-29T12:16:35.859Z,28.80
2018-07-29T12:19:04.440Z,28.90
2018-07-29T12:21:33.065Z,28.90
2018-07-29T12:26:29.923Z,29.00
2018-07-29T12:28:58.442Z,29.00
2018-07-29T12:31:27.744Z,29.20
2018-07-29T12:33:56.532Z,29.20
2018-07-29T12:36:25.083Z,29.20
2018-07-29T12:38:53.636Z,29.30
2018-07-29T12:41:22.162Z,29.50
2018-07-29T12:43:51.007Z,29.50
2018-07-29T12:46:19.605Z,29.80
2018-07-29T12:48:48.137Z,29.90
2018-07-29T12:51:16.939Z,29.80
2018-07-29T12:53:46.133Z,29.70
2018-07-29T12:56:15.104Z,29.70
2018-07-29T12:58:43.923Z,29.70
2018-07-29T13:01:12.836Z,29.70
2018-07-29T13:03:41.448Z,29.60
2018-07-29T13:06:10.581Z,29.50
2018-07-29T13:08:39.158Z,29.40
2018-07-29T13:11:08.094Z,29.40
2018-07-29T13:13:38.367Z,29.30
2018-07-29T13:16:07.521Z,29.30
2018-07-29T13:18:36.287Z,29.40
2018-07-29T13:21:05.893Z,29.30
2018-07-29T13:23:35.730Z,29.30
2018-07-29T13:26:04.618Z,29.30
2018-07-29T13:28:33.356Z,29.30
2018-07-29T13:31:02.099Z,29.30
2018-07-29T13:33:31.989Z,29.30
2018-07-29T13:36:00.950Z,29.40
2018-07-29T13:38:29.583Z,29.50
2018-07-29T13:40:58.195Z,29.50
2018-07-29T13:43:26.874Z,29.40
2018-07-29T13:45:56.604Z,29.40
2018-07-29T13:48:25.150Z,29.40
2018-07-29T13:50:53.811Z,29.50
2018-07-29T13:53:22.479Z,29.60
2018-07-29T13:55:52.269Z,29.60
2018-07-29T13:58:21.586Z,29.50
2018-07-29T14:00:50.401Z,29.50
2018-07-29T14:03:19.011Z,29.50
2018-07-29T14:05:47.659Z,29.50
2018-07-29T14:08:16.315Z,29.40
2018-07-29T14:10:45.040Z,29.40
2018-07-29T14:13:14.204Z,29.40
2018-07-29T14:15:42.786Z,29.30
2018-07-29T14:18:11.416Z,29.30
2018-07-29T14:20:40.279Z,29.40
2018-07-29T14:23:09.186Z,29.40
2018-07-29T14:25:38.036Z,29.40
2018-07-29T14:28:07.070Z,29.60
2018-07-29T14:30:35.744Z,29.70
2018-07-29T14:33:04.599Z,29.80
2018-07-29T14:35:34.346Z,29.80
2018-07-29T14:38:02.931Z,29.80
2018-07-29T14:40:31.575Z,29.80
2018-07-29T14:43:01.453Z,29.70
2018-07-29T14:45:31.288Z,29.60
2018-07-29T14:47:59.922Z,29.60
2018-07-29T14:50:28.479Z,29.60
2018-07-29T14:52:57.765Z,29.60
2018-07-29T14:55:26.324Z,29.60
2018-07-29T14:57:55.064Z,29.60
2018-07-29T15:02:52.341Z,29.70
2018-07-29T15:05:21.794Z,29.70
2018-07-29T15:07:50.473Z,29.70
2018-07-29T15:10:26.082Z,29.60
2018-07-29T15:12:55.187Z,29.60
2018-07-29T15:15:25.138Z,29.50
2018-07-29T15:17:54.102Z,29.50
2018-07-29T15:20:23.536Z,29.50
2018-07-29T15:22:53.448Z,29.60
2018-07-29T15:25:22.952Z,29.60
2018-07-29T15:27:52.253Z,29.60
2018-07-29T15:30:21.797Z,29.50
2018-07-29T15:32:50.451Z,29.50
2018-07-29T15:35:19.238Z,29.60
2018-07-29T15:37:47.759Z,29.60
2018-07-29T15:40:16.587Z,29.50
2018-07-29T15:42:46.361Z,29.50
2018-07-29T15:45:16.116Z,29.50
2018-07-29T15:47:45.767Z,29.40
2018-07-29T15:50:14.434Z,29.40
2018-07-29T15:52:43.117Z,29.40
2018-07-29T15:55:12.267Z,29.40
2018-07-29T15:57:40.833Z,29.40
2018-07-29T16:00:10.993Z,29.40
2018-07-29T16:02:40.289Z,29.30
2018-07-29T16:05:09.147Z,29.30
2018-07-29T16:07:38.246Z,29.40
2018-07-29T16:12:36.543Z,29.40
2018-07-29T16:15:06.304Z,29.40
2018-07-29T16:17:35.404Z,29.40
2018-07-29T16:20:04.535Z,29.30
2018-07-29T16:22:33.176Z,29.30
2018-07-29T16:25:01.772Z,29.30
2018-07-29T16:27:30.590Z,29.30
2018-07-29T16:29:59.762Z,29.30
2018-07-29T16:32:29.751Z,29.20
2018-07-29T16:34:58.546Z,29.10
2018-07-29T16:37:27.153Z,29.10
2018-07-29T16:39:57.529Z,29.10
2018-07-29T16:42:26.368Z,29.10
2018-07-29T16:44:56.092Z,29.10
2018-07-29T16:47:25.792Z,29.10
2018-07-29T16:49:54.375Z,29.10
2018-07-29T16:52:23.455Z,29.10
2018-07-29T16:54:53.261Z,29.30
2018-07-29T16:57:23.456Z,29.40
2018-07-29T16:59:53.271Z,29.50
2018-07-29T17:02:22.595Z,29.50
2018-07-29T17:04:51.656Z,29.40
2018-07-29T17:07:20.652Z,29.30
2018-07-29T17:09:50.919Z,29.20
2018-07-29T17:12:19.898Z,29.20
2018-07-29T17:14:49.289Z,29.30
2018-07-29T17:17:17.932Z,29.30
2018-07-29T17:19:46.536Z,29.30
2018-07-29T17:22:15.066Z,29.20
2018-07-29T17:24:43.610Z,29.10
2018-07-29T17:27:12.207Z,29.10
2018-07-29T17:29:40.771Z,29.20
2018-07-29T17:32:09.591Z,29.10
2018-07-29T17:34:39.125Z,29.00
2018-07-29T17:37:08.837Z,29.00
2018-07-29T17:39:37.416Z,28.90
2018-07-29T17:42:06.307Z,28.90
2018-07-29T17:44:34.860Z,28.80
2018-07-29T17:47:03.687Z,28.80
2018-07-29T17:49:32.267Z,28.70
2018-07-29T17:52:01.223Z,28.60
2018-07-29T17:54:30.804Z,28.60
2018-07-29T17:56:59.432Z,28.50
2018-07-29T17:59:28.798Z,28.50
2018-07-29T18:01:57.501Z,28.50
2018-07-29T18:04:26.574Z,28.40
2018-07-29T18:06:55.077Z,28.40
2018-07-29T18:09:23.652Z,28.40
2018-07-29T18:11:52.221Z,28.30
2018-07-29T18:14:20.987Z,28.30
2018-07-29T18:16:49.862Z,28.30
2018-07-29T18:19:18.669Z,28.30
2018-07-29T18:21:48.176Z,28.20
2018-07-29T18:24:18.657Z,28.20
2018-07-29T18:26:47.448Z,28.20
2018-07-29T18:29:15.986Z,28.20
2018-07-29T18:31:44.544Z,28.20
2018-07-29T18:34:13.227Z,28.20
2018-07-29T18:36:42.060Z,28.20
2018-07-29T18:39:11.177Z,28.20
2018-07-29T18:41:39.710Z,28.10
2018-07-29T18:44:08.362Z,28.10
2018-07-29T18:46:36.911Z,28.10
2018-07-29T18:49:05.619Z,28.10
2018-07-29T18:51:34.153Z,28.10
2018-07-29T18:54:02.814Z,28.10
2018-07-29T18:56:31.982Z,28.00
2018-07-29T18:59:00.664Z,28.00
2018-07-29T19:01:29.259Z,28.00
2018-07-29T19:03:58.501Z,28.00
2018-07-29T19:06:28.435Z,28.00
2018-07-29T19:08:57.151Z,28.00
2018-07-29T19:11:25.832Z,28.00
2018-07-29T19:13:54.421Z,28.00
2018-07-29T19:16:23.248Z,28.00
2018-07-29T19:18:51.883Z,28.00
2018-07-29T19:21:20.467Z,28.00
2018-07-29T19:23:49.267Z,28.00
2018-07-29T19:26:17.804Z,28.00
2018-07-29T19:28:46.516Z,27.90
2018-07-29T19:31:15.176Z,27.90
2018-07-29T19:33:43.934Z,27.90
2018-07-29T19:36:12.710Z,27.90
2018-07-29T19:38:41.395Z,27.90
2018-07-29T19:41:09.969Z,27.90
2018-07-29T19:43:38.919Z,27.90
2018-07-29T19:46:08.040Z,27.80
2018-07-29T19:48:36.851Z,27.80
2018-07-29T19:51:05.475Z,27.80
2018-07-29T19:53:34.441Z,27.70
2018-07-29T19:56:03.023Z,27.80
2018-07-29T19:58:31.693Z,27.70
2018-07-29T20:01:00.429Z,27.70
2018-07-29T20:03:29.612Z,27.70
2018-07-29T20:05:58.435Z,27.70
2018-07-29T20:08:27.287Z,27.70
2018-07-29T20:10:56.047Z,27.60
2018-07-29T20:13:24.963Z,27.70
2018-07-29T20:15:53.592Z,27.60
2018-07-29T20:20:51.000Z,27.50
2018-07-29T20:23:20.056Z,27.60
2018-07-29T20:25:48.749Z,27.50
2018-07-29T20:28:17.672Z,27.50
2018-07-29T20:30:46.533Z,27.40
2018-07-29T20:33:15.619Z,27.40
2018-07-29T20:40:43.075Z,27.30
2018-07-29T20:43:11.946Z,27.30
2018-07-29T20:45:41.108Z,27.20
2018-07-29T20:48:09.892Z,27.10
2018-07-29T20:50:38.477Z,27.10
2018-07-29T20:53:07.568Z,27.10
2018-07-29T20:55:36.516Z,27.00
2018-07-29T20:58:05.252Z,27.00
2018-07-29T21:03:02.509Z,27.00
2018-07-29T21:05:31.572Z,26.90
2018-07-29T21:08:01.249Z,26.90
2018-07-29T21:10:30.682Z,26.90
2018-07-29T21:12:59.529Z,26.90
2018-07-29T21:15:28.908Z,26.90
2018-07-29T21:17:57.815Z,26.80
2018-07-29T21:20:26.394Z,26.80
2018-07-29T21:22:55.028Z,26.70
2018-07-29T21:25:23.918Z,26.70
2018-07-29T21:27:52.587Z,26.60
2018-07-29T21:30:21.385Z,26.70
2018-07-29T21:32:51.020Z,26.70
2018-07-29T21:35:19.858Z,26.70
2018-07-29T21:37:48.428Z,26.70
2018-07-29T21:40:17.571Z,26.70
2018-07-29T21:42:46.568Z,26.60
2018-07-29T21:45:15.504Z,26.60
2018-07-29T21:50:12.248Z,26.60
2018-07-29T21:52:40.811Z,26.60
2018-07-29T21:55:09.556Z,26.60
2018-07-29T21:57:38.183Z,26.60
2018-07-29T22:00:08.420Z,26.60
2018-07-29T22:02:42.426Z,26.70
2018-07-29T22:05:11.266Z,26.70
2018-07-29T22:07:40.732Z,26.70
2018-07-29T22:10:10.290Z,26.60
2018-07-29T22:12:39.337Z,26.60
2018-07-29T22:17:37.142Z,26.50
2018-07-29T22:20:06.502Z,26.50
2018-07-29T22:22:35.057Z,26.40
2018-07-29T22:25:09.044Z,26.40
2018-07-29T22:27:38.148Z,26.40
2018-07-29T22:30:12.236Z,26.40
2018-07-29T22:32:41.037Z,26.30
2018-07-29T22:35:10.089Z,26.30
2018-07-29T22:37:40.019Z,26.30
2018-07-29T22:40:08.649Z,26.20
2018-07-29T22:42:37.363Z,26.20
2018-07-29T22:45:06.823Z,26.10
2018-07-29T22:47:35.469Z,26.10
2018-07-29T22:50:04.178Z,26.10
2018-07-29T22:52:32.778Z,26.10
2018-07-29T22:57:29.599Z,26.00
2018-07-29T22:59:58.236Z,26.00
2018-07-29T23:02:27.874Z,26.00
2018-07-29T23:04:57.312Z,26.10
2018-07-29T23:07:26.094Z,26.00
2018-07-29T23:10:02.504Z,25.90
2018-07-29T23:12:31.187Z,25.80
2018-07-29T23:15:00.451Z,25.70
2018-07-29T23:17:29.443Z,25.60
2018-07-29T23:19:58.481Z,25.40
2018-07-29T23:22:28.634Z,25.40
2018-07-29T23:24:57.797Z,25.40
2018-07-29T23:27:26.743Z,25.30
2018-07-29T23:29:55.668Z,25.30
2018-07-29T23:32:24.327Z,25.20
2018-07-29T23:34:52.940Z,25.20
2018-07-29T23:37:21.523Z,25.20
2018-07-29T23:39:50.079Z,25.20
2018-07-29T23:42:18.760Z,25.30
2018-07-29T23:44:47.583Z,25.30
2018-07-29T23:47:16.271Z,25.30
2018-07-29T23:49:45.029Z,25.20
2018-07-29T23:52:14.077Z,25.30
2018-07-29T23:54:42.661Z,25.30
2018-07-29T23:57:11.190Z,25.30
